sensor_id;sensor_type;location;lat;lon;timestamp;P1;durP1;ratioP1;P2;durP2;ratioP2
55172;SDS011;41061;52.822;6.860;2022-09-09T00:14:00;12.48;;;4.45;;
55172;SDS011;41061;52.822;6.860;2022-09-09T00:26:47;12.25;;;4.18;;
55172;SDS011;41061;52.822;6.860;2022-09-09T00:36:37;10.80;;;4.10;;
55172;SDS011;41061;52.822;6.860;2022-09-09T00:47:57;8.98;;;3.97;;
55172;SDS011;41061;52.822;6.860;2022-09-09T01:00:46;7.60;;;3.53;;
55172;SDS011;41061;52.822;6.860;2022-09-09T01:03:58;8.90;;;3.55;;
55172;SDS011;41061;52.822;6.860;2022-09-09T01:06:35;9.90;;;4.70;;
55172;SDS011;41061;52.822;6.860;2022-09-09T01:09:21;11.13;;;4.40;;
55172;SDS011;41061;52.822;6.860;2022-09-09T01:14:52;8.68;;;3.60;;
55172;SDS011;41061;52.822;6.860;2022-09-09T01:24:12;12.70;;;3.45;;
55172;SDS011;41061;52.822;6.860;2022-09-09T01:27:13;10.05;;;3.42;;
55172;SDS011;41061;52.822;6.860;2022-09-09T01:29:43;10.63;;;3.65;;
55172;SDS011;41061;52.822;6.860;2022-09-09T01:35:05;7.78;;;4.00;;
55172;SDS011;41061;52.822;6.860;2022-09-09T01:37:36;7.60;;;4.25;;
55172;SDS011;41061;52.822;6.860;2022-09-09T01:40:02;11.65;;;4.30;;
55172;SDS011;41061;52.822;6.860;2022-09-09T01:42:28;8.73;;;3.60;;
55172;SDS011;41061;52.822;6.860;2022-09-09T01:44:53;7.53;;;3.67;;
55172;SDS011;41061;52.822;6.860;2022-09-09T01:47:20;8.52;;;3.85;;
55172;SDS011;41061;52.822;6.860;2022-09-09T01:49:46;11.13;;;3.45;;
55172;SDS011;41061;52.822;6.860;2022-09-09T01:52:12;7.95;;;3.92;;
55172;SDS011;41061;52.822;6.860;2022-09-09T01:54:37;8.10;;;3.88;;
55172;SDS011;41061;52.822;6.860;2022-09-09T02:00:10;8.07;;;3.58;;
55172;SDS011;41061;52.822;6.860;2022-09-09T02:08:07;10.35;;;4.60;;
55172;SDS011;41061;52.822;6.860;2022-09-09T02:13:37;9.02;;;4.47;;
55172;SDS011;41061;52.822;6.860;2022-09-09T02:16:08;8.10;;;4.50;;
55172;SDS011;41061;52.822;6.860;2022-09-09T02:25:03;7.80;;;3.70;;
55172;SDS011;41061;52.822;6.860;2022-09-09T02:28:10;9.38;;;4.40;;
55172;SDS011;41061;52.822;6.860;2022-09-09T02:31:07;9.15;;;4.20;;
55172;SDS011;41061;52.822;6.860;2022-09-09T02:33:42;9.48;;;4.20;;
55172;SDS011;41061;52.822;6.860;2022-09-09T02:36:10;9.80;;;4.75;;
55172;SDS011;41061;52.822;6.860;2022-09-09T02:39:12;8.45;;;4.63;;
55172;SDS011;41061;52.822;6.860;2022-09-09T02:41:47;9.23;;;5.00;;
55172;SDS011;41061;52.822;6.860;2022-09-09T02:44:16;10.45;;;5.10;;
55172;SDS011;41061;52.822;6.860;2022-09-09T02:47:22;11.32;;;4.88;;
55172;SDS011;41061;52.822;6.860;2022-09-09T02:50:12;8.38;;;4.72;;
55172;SDS011;41061;52.822;6.860;2022-09-09T02:56:27;9.25;;;4.63;;
55172;SDS011;41061;52.822;6.860;2022-09-09T02:59:26;6.43;;;4.15;;
55172;SDS011;41061;52.822;6.860;2022-09-09T03:02:39;7.70;;;5.00;;
55172;SDS011;41061;52.822;6.860;2022-09-09T03:08:40;9.18;;;4.55;;
55172;SDS011;41061;52.822;6.860;2022-09-09T03:11:28;7.15;;;3.80;;
55172;SDS011;41061;52.822;6.860;2022-09-09T03:13:54;7.68;;;3.97;;
55172;SDS011;41061;52.822;6.860;2022-09-09T03:16:24;5.45;;;3.60;;
55172;SDS011;41061;52.822;6.860;2022-09-09T03:18:49;6.72;;;3.75;;
55172;SDS011;41061;52.822;6.860;2022-09-09T03:21:15;5.32;;;3.33;;
55172;SDS011;41061;52.822;6.860;2022-09-09T03:23:41;8.02;;;2.83;;
55172;SDS011;41061;52.822;6.860;2022-09-09T03:26:07;8.05;;;2.92;;
55172;SDS011;41061;52.822;6.860;2022-09-09T03:28:33;6.97;;;3.15;;
55172;SDS011;41061;52.822;6.860;2022-09-09T03:31:02;7.05;;;3.20;;
55172;SDS011;41061;52.822;6.860;2022-09-09T03:33:30;6.95;;;2.78;;
55172;SDS011;41061;52.822;6.860;2022-09-09T03:35:56;7.22;;;2.80;;
55172;SDS011;41061;52.822;6.860;2022-09-09T03:38:23;3.92;;;2.20;;
55172;SDS011;41061;52.822;6.860;2022-09-09T03:40:52;3.95;;;2.20;;
55172;SDS011;41061;52.822;6.860;2022-09-09T03:43:22;6.30;;;2.20;;
55172;SDS011;41061;52.822;6.860;2022-09-09T03:45:49;3.40;;;1.50;;
55172;SDS011;41061;52.822;6.860;2022-09-09T03:48:15;8.10;;;1.40;;
55172;SDS011;41061;52.822;6.860;2022-09-09T03:50:51;2.85;;;1.70;;
55172;SDS011;41061;52.822;6.860;2022-09-09T03:53:18;2.15;;;1.52;;
55172;SDS011;41061;52.822;6.860;2022-09-09T03:55:46;4.47;;;1.42;;
55172;SDS011;41061;52.822;6.860;2022-09-09T03:58:22;2.72;;;1.40;;
55172;SDS011;41061;52.822;6.860;2022-09-09T04:03:31;4.30;;;1.90;;
55172;SDS011;41061;52.822;6.860;2022-09-09T04:05:58;4.90;;;2.28;;
55172;SDS011;41061;52.822;6.860;2022-09-09T04:08:28;4.85;;;2.88;;
55172;SDS011;41061;52.822;6.860;2022-09-09T04:11:07;8.15;;;4.07;;
55172;SDS011;41061;52.822;6.860;2022-09-09T04:13:36;6.78;;;4.07;;
55172;SDS011;41061;52.822;6.860;2022-09-09T04:16:12;6.35;;;3.88;;
55172;SDS011;41061;52.822;6.860;2022-09-09T04:18:43;7.82;;;5.47;;
55172;SDS011;41061;52.822;6.860;2022-09-09T04:21:15;9.43;;;4.63;;
55172;SDS011;41061;52.822;6.860;2022-09-09T04:23:41;9.20;;;5.13;;
55172;SDS011;41061;52.822;6.860;2022-09-09T04:26:06;12.60;;;5.38;;
55172;SDS011;41061;52.822;6.860;2022-09-09T04:28:33;10.73;;;6.03;;
55172;SDS011;41061;52.822;6.860;2022-09-09T04:31:04;8.75;;;5.55;;
55172;SDS011;41061;52.822;6.860;2022-09-09T04:33:34;10.68;;;5.95;;
55172;SDS011;41061;52.822;6.860;2022-09-09T04:36:00;11.02;;;6.05;;
55172;SDS011;41061;52.822;6.860;2022-09-09T04:38:26;9.65;;;6.05;;
55172;SDS011;41061;52.822;6.860;2022-09-09T04:40:52;10.57;;;5.55;;
55172;SDS011;41061;52.822;6.860;2022-09-09T04:43:19;14.02;;;5.80;;
55172;SDS011;41061;52.822;6.860;2022-09-09T04:45:49;8.30;;;5.93;;
55172;SDS011;41061;52.822;6.860;2022-09-09T04:48:19;11.50;;;6.07;;
55172;SDS011;41061;52.822;6.860;2022-09-09T04:50:58;9.88;;;5.80;;
55172;SDS011;41061;52.822;6.860;2022-09-09T04:53:26;7.75;;;5.90;;
55172;SDS011;41061;52.822;6.860;2022-09-09T04:56:00;8.52;;;5.47;;
55172;SDS011;41061;52.822;6.860;2022-09-09T04:58:26;8.93;;;6.32;;
55172;SDS011;41061;52.822;6.860;2022-09-09T05:00:53;11.30;;;6.18;;
55172;SDS011;41061;52.822;6.860;2022-09-09T05:03:18;9.65;;;6.10;;
55172;SDS011;41061;52.822;6.860;2022-09-09T05:05:44;10.90;;;5.88;;
55172;SDS011;41061;52.822;6.860;2022-09-09T05:08:10;9.70;;;5.45;;
55172;SDS011;41061;52.822;6.860;2022-09-09T05:10:37;9.93;;;5.55;;
55172;SDS011;41061;52.822;6.860;2022-09-09T05:13:03;7.65;;;4.97;;
55172;SDS011;41061;52.822;6.860;2022-09-09T05:15:29;8.13;;;5.10;;
55172;SDS011;41061;52.822;6.860;2022-09-09T05:17:59;9.40;;;5.22;;
55172;SDS011;41061;52.822;6.860;2022-09-09T05:20:37;6.00;;;4.60;;
55172;SDS011;41061;52.822;6.860;2022-09-09T05:23:08;5.28;;;4.20;;
55172;SDS011;41061;52.822;6.860;2022-09-09T05:25:41;6.93;;;4.85;;
55172;SDS011;41061;52.822;6.860;2022-09-09T05:28:28;9.77;;;4.88;;
55172;SDS011;41061;52.822;6.860;2022-09-09T05:31:30;8.77;;;4.72;;
55172;SDS011;41061;52.822;6.860;2022-09-09T05:34:01;6.90;;;4.82;;
55172;SDS011;41061;52.822;6.860;2022-09-09T05:36:27;8.35;;;4.82;;
55172;SDS011;41061;52.822;6.860;2022-09-09T05:38:56;9.30;;;5.28;;
55172;SDS011;41061;52.822;6.860;2022-09-09T05:41:24;7.13;;;4.30;;
55172;SDS011;41061;52.822;6.860;2022-09-09T05:46:26;6.55;;;4.55;;
55172;SDS011;41061;52.822;6.860;2022-09-09T05:49:05;5.50;;;4.45;;
55172;SDS011;41061;52.822;6.860;2022-09-09T05:51:41;8.00;;;4.82;;
55172;SDS011;41061;52.822;6.860;2022-09-09T05:54:10;6.57;;;4.05;;
55172;SDS011;41061;52.822;6.860;2022-09-09T05:56:43;5.88;;;4.10;;
55172;SDS011;41061;52.822;6.860;2022-09-09T05:59:09;10.07;;;5.13;;
55172;SDS011;41061;52.822;6.860;2022-09-09T06:01:36;8.05;;;4.82;;
55172;SDS011;41061;52.822;6.860;2022-09-09T06:04:05;10.02;;;5.45;;
55172;SDS011;41061;52.822;6.860;2022-09-09T06:06:35;7.13;;;5.72;;
55172;SDS011;41061;52.822;6.860;2022-09-09T06:09:02;8.00;;;4.82;;
55172;SDS011;41061;52.822;6.860;2022-09-09T06:11:38;8.80;;;4.75;;
55172;SDS011;41061;52.822;6.860;2022-09-09T06:14:04;6.82;;;4.85;;
55172;SDS011;41061;52.822;6.860;2022-09-09T06:16:30;5.85;;;4.85;;
55172;SDS011;41061;52.822;6.860;2022-09-09T06:18:58;7.28;;;4.90;;
55172;SDS011;41061;52.822;6.860;2022-09-09T06:23:51;7.97;;;4.60;;
55172;SDS011;41061;52.822;6.860;2022-09-09T06:26:21;5.20;;;4.13;;
55172;SDS011;41061;52.822;6.860;2022-09-09T06:28:58;7.07;;;4.65;;
55172;SDS011;41061;52.822;6.860;2022-09-09T06:31:26;7.70;;;4.70;;
55172;SDS011;41061;52.822;6.860;2022-09-09T06:33:55;5.93;;;4.35;;
55172;SDS011;41061;52.822;6.860;2022-09-09T06:36:26;5.68;;;4.70;;
55172;SDS011;41061;52.822;6.860;2022-09-09T06:38:54;8.73;;;4.28;;
55172;SDS011;41061;52.822;6.860;2022-09-09T06:41:22;8.45;;;5.07;;
55172;SDS011;41061;52.822;6.860;2022-09-09T06:43:49;6.10;;;4.18;;
55172;SDS011;41061;52.822;6.860;2022-09-09T06:46:20;10.45;;;4.60;;
55172;SDS011;41061;52.822;6.860;2022-09-09T06:48:47;7.38;;;4.60;;
55172;SDS011;41061;52.822;6.860;2022-09-09T06:53:41;6.47;;;4.30;;
55172;SDS011;41061;52.822;6.860;2022-09-09T06:58:39;7.53;;;4.97;;
55172;SDS011;41061;52.822;6.860;2022-09-09T07:01:12;8.57;;;5.28;;
55172;SDS011;41061;52.822;6.860;2022-09-09T07:03:39;7.18;;;4.40;;
55172;SDS011;41061;52.822;6.860;2022-09-09T07:06:06;8.75;;;4.72;;
55172;SDS011;41061;52.822;6.860;2022-09-09T07:08:32;8.63;;;4.72;;
55172;SDS011;41061;52.822;6.860;2022-09-09T07:11:04;7.95;;;4.80;;
55172;SDS011;41061;52.822;6.860;2022-09-09T07:13:31;7.15;;;4.22;;
55172;SDS011;41061;52.822;6.860;2022-09-09T07:16:04;6.30;;;5.00;;
55172;SDS011;41061;52.822;6.860;2022-09-09T07:18:31;8.27;;;5.03;;
55172;SDS011;41061;52.822;6.860;2022-09-09T07:20:56;9.20;;;4.88;;
55172;SDS011;41061;52.822;6.860;2022-09-09T07:23:23;6.45;;;4.78;;
55172;SDS011;41061;52.822;6.860;2022-09-09T07:25:49;8.40;;;4.60;;
55172;SDS011;41061;52.822;6.860;2022-09-09T07:28:15;8.90;;;4.95;;
55172;SDS011;41061;52.822;6.860;2022-09-09T07:30:41;7.03;;;4.38;;
55172;SDS011;41061;52.822;6.860;2022-09-09T07:33:08;8.43;;;4.47;;
55172;SDS011;41061;52.822;6.860;2022-09-09T07:35:37;7.60;;;4.30;;
55172;SDS011;41061;52.822;6.860;2022-09-09T07:38:03;7.60;;;4.43;;
55172;SDS011;41061;52.822;6.860;2022-09-09T07:40:32;5.07;;;4.03;;
55172;SDS011;41061;52.822;6.860;2022-09-09T07:42:59;5.38;;;3.92;;
55172;SDS011;41061;52.822;6.860;2022-09-09T07:45:24;8.48;;;3.42;;
55172;SDS011;41061;52.822;6.860;2022-09-09T07:47:53;8.50;;;4.20;;
55172;SDS011;41061;52.822;6.860;2022-09-09T07:50:18;8.38;;;3.88;;
55172;SDS011;41061;52.822;6.860;2022-09-09T07:52:44;7.80;;;3.72;;
55172;SDS011;41061;52.822;6.860;2022-09-09T07:55:10;7.38;;;3.50;;
55172;SDS011;41061;52.822;6.860;2022-09-09T07:57:35;9.82;;;5.03;;
55172;SDS011;41061;52.822;6.860;2022-09-09T08:00:02;6.70;;;3.78;;
55172;SDS011;41061;52.822;6.860;2022-09-09T08:02:29;5.95;;;3.58;;
55172;SDS011;41061;52.822;6.860;2022-09-09T08:04:55;7.00;;;3.80;;
55172;SDS011;41061;52.822;6.860;2022-09-09T08:07:23;6.80;;;4.00;;
55172;SDS011;41061;52.822;6.860;2022-09-09T08:09:49;7.13;;;3.70;;
55172;SDS011;41061;52.822;6.860;2022-09-09T08:12:15;8.18;;;4.03;;
55172;SDS011;41061;52.822;6.860;2022-09-09T08:14:41;8.02;;;3.65;;
55172;SDS011;41061;52.822;6.860;2022-09-09T08:17:07;9.43;;;3.47;;
55172;SDS011;41061;52.822;6.860;2022-09-09T08:19:32;6.13;;;3.72;;
55172;SDS011;41061;52.822;6.860;2022-09-09T08:22:00;9.45;;;3.20;;
55172;SDS011;41061;52.822;6.860;2022-09-09T08:24:27;10.27;;;3.88;;
55172;SDS011;41061;52.822;6.860;2022-09-09T08:26:53;6.63;;;3.20;;
55172;SDS011;41061;52.822;6.860;2022-09-09T08:29:19;8.02;;;3.03;;
55172;SDS011;41061;52.822;6.860;2022-09-09T08:31:47;6.78;;;3.25;;
55172;SDS011;41061;52.822;6.860;2022-09-09T08:34:19;11.15;;;4.00;;
55172;SDS011;41061;52.822;6.860;2022-09-09T08:36:46;6.78;;;3.38;;
55172;SDS011;41061;52.822;6.860;2022-09-09T08:39:14;6.93;;;2.70;;
55172;SDS011;41061;52.822;6.860;2022-09-09T08:44:36;7.18;;;2.75;;
55172;SDS011;41061;52.822;6.860;2022-09-09T08:55:51;10.63;;;3.20;;
55172;SDS011;41061;52.822;6.860;2022-09-09T08:58:32;9.48;;;2.65;;
55172;SDS011;41061;52.822;6.860;2022-09-09T09:03:45;10.88;;;2.58;;
55172;SDS011;41061;52.822;6.860;2022-09-09T09:11:59;6.82;;;2.33;;
55172;SDS011;41061;52.822;6.860;2022-09-09T09:14:30;13.75;;;2.83;;
55172;SDS011;41061;52.822;6.860;2022-09-09T09:19:44;10.32;;;2.35;;
55172;SDS011;41061;52.822;6.860;2022-09-09T09:22:22;9.98;;;2.75;;
55172;SDS011;41061;52.822;6.860;2022-09-09T09:25:13;8.90;;;2.70;;
55172;SDS011;41061;52.822;6.860;2022-09-09T09:27:52;7.53;;;2.30;;
55172;SDS011;41061;52.822;6.860;2022-09-09T09:30:23;14.77;;;2.63;;
55172;SDS011;41061;52.822;6.860;2022-09-09T09:35:20;8.23;;;2.38;;
55172;SDS011;41061;52.822;6.860;2022-09-09T09:37:46;11.45;;;2.50;;
55172;SDS011;41061;52.822;6.860;2022-09-09T09:40:20;12.30;;;2.67;;
55172;SDS011;41061;52.822;6.860;2022-09-09T09:42:53;10.23;;;2.58;;
55172;SDS011;41061;52.822;6.860;2022-09-09T09:48:04;10.05;;;2.53;;
55172;SDS011;41061;52.822;6.860;2022-09-09T09:50:33;6.43;;;2.10;;
55172;SDS011;41061;52.822;6.860;2022-09-09T09:53:00;9.93;;;1.92;;
55172;SDS011;41061;52.822;6.860;2022-09-09T09:55:29;9.13;;;2.13;;
55172;SDS011;41061;52.822;6.860;2022-09-09T09:58:02;15.52;;;2.30;;
55172;SDS011;41061;52.822;6.860;2022-09-09T10:00:29;6.60;;;1.80;;
55172;SDS011;41061;52.822;6.860;2022-09-09T10:02:56;9.18;;;1.75;;
55172;SDS011;41061;52.822;6.860;2022-09-09T10:05:22;11.38;;;2.17;;
55172;SDS011;41061;52.822;6.860;2022-09-09T10:10:45;9.82;;;2.10;;
55172;SDS011;41061;52.822;6.860;2022-09-09T10:13:19;7.15;;;2.10;;
55172;SDS011;41061;52.822;6.860;2022-09-09T10:15:58;11.43;;;1.95;;
55172;SDS011;41061;52.822;6.860;2022-09-09T10:26:31;7.13;;;1.75;;
55172;SDS011;41061;52.822;6.860;2022-09-09T10:29:28;7.38;;;1.75;;
55172;SDS011;41061;52.822;6.860;2022-09-09T10:32:19;9.05;;;2.28;;
55172;SDS011;41061;52.822;6.860;2022-09-09T10:41:00;9.63;;;1.73;;
55172;SDS011;41061;52.822;6.860;2022-09-09T10:54:23;5.55;;;1.42;;
55172;SDS011;41061;52.822;6.860;2022-09-09T10:57:17;9.98;;;1.83;;
55172;SDS011;41061;52.822;6.860;2022-09-09T10:59:50;7.63;;;1.63;;
55172;SDS011;41061;52.822;6.860;2022-09-09T11:02:29;7.95;;;1.73;;
55172;SDS011;41061;52.822;6.860;2022-09-09T11:05:08;10.57;;;1.40;;
55172;SDS011;41061;52.822;6.860;2022-09-09T11:07:43;8.75;;;1.27;;
55172;SDS011;41061;52.822;6.860;2022-09-09T11:12:49;9.55;;;1.67;;
55172;SDS011;41061;52.822;6.860;2022-09-09T11:15:20;9.57;;;1.70;;
55172;SDS011;41061;52.822;6.860;2022-09-09T11:17:53;6.88;;;1.38;;
55172;SDS011;41061;52.822;6.860;2022-09-09T11:20:22;6.65;;;1.55;;
55172;SDS011;41061;52.822;6.860;2022-09-09T11:23:01;8.38;;;1.67;;
55172;SDS011;41061;52.822;6.860;2022-09-09T11:25:36;6.95;;;1.08;;
55172;SDS011;41061;52.822;6.860;2022-09-09T11:31:32;6.47;;;1.45;;
55172;SDS011;41061;52.822;6.860;2022-09-09T11:45:53;7.75;;;1.60;;
55172;SDS011;41061;52.822;6.860;2022-09-09T11:51:09;8.43;;;1.33;;
55172;SDS011;41061;52.822;6.860;2022-09-09T11:53:59;5.85;;;1.25;;
55172;SDS011;41061;52.822;6.860;2022-09-09T11:56:27;6.10;;;1.65;;
55172;SDS011;41061;52.822;6.860;2022-09-09T11:59:04;6.15;;;1.30;;
55172;SDS011;41061;52.822;6.860;2022-09-09T12:01:38;5.53;;;1.13;;
55172;SDS011;41061;52.822;6.860;2022-09-09T12:06:49;7.32;;;1.75;;
55172;SDS011;41061;52.822;6.860;2022-09-09T12:17:16;4.15;;;1.42;;
55172;SDS011;41061;52.822;6.860;2022-09-09T12:19:45;7.15;;;1.45;;
55172;SDS011;41061;52.822;6.860;2022-09-09T12:22:15;6.65;;;1.30;;
55172;SDS011;41061;52.822;6.860;2022-09-09T12:25:15;4.18;;;1.02;;
55172;SDS011;41061;52.822;6.860;2022-09-09T12:28:02;6.95;;;1.40;;
55172;SDS011;41061;52.822;6.860;2022-09-09T12:30:46;6.60;;;1.38;;
55172;SDS011;41061;52.822;6.860;2022-09-09T12:33:18;5.82;;;1.33;;
55172;SDS011;41061;52.822;6.860;2022-09-09T12:35:45;5.43;;;1.10;;
55172;SDS011;41061;52.822;6.860;2022-09-09T12:38:22;5.55;;;1.33;;
55172;SDS011;41061;52.822;6.860;2022-09-09T12:40:57;5.55;;;1.10;;
55172;SDS011;41061;52.822;6.860;2022-09-09T12:43:24;3.13;;;1.02;;
55172;SDS011;41061;52.822;6.860;2022-09-09T12:45:55;5.80;;;1.63;;
55172;SDS011;41061;52.822;6.860;2022-09-09T12:48:41;5.43;;;0.93;;
55172;SDS011;41061;52.822;6.860;2022-09-09T12:51:16;5.47;;;1.33;;
55172;SDS011;41061;52.822;6.860;2022-09-09T12:53:46;5.25;;;1.13;;
55172;SDS011;41061;52.822;6.860;2022-09-09T12:56:22;5.63;;;1.35;;
55172;SDS011;41061;52.822;6.860;2022-09-09T12:58:56;5.60;;;1.00;;
55172;SDS011;41061;52.822;6.860;2022-09-09T13:01:24;4.90;;;1.48;;
55172;SDS011;41061;52.822;6.860;2022-09-09T13:03:51;5.68;;;1.50;;
55172;SDS011;41061;52.822;6.860;2022-09-09T13:06:36;4.25;;;0.93;;
55172;SDS011;41061;52.822;6.860;2022-09-09T13:09:02;6.75;;;1.40;;
55172;SDS011;41061;52.822;6.860;2022-09-09T13:14:01;4.57;;;1.10;;
55172;SDS011;41061;52.822;6.860;2022-09-09T13:16:31;4.72;;;1.25;;
55172;SDS011;41061;52.822;6.860;2022-09-09T13:18:59;9.40;;;1.35;;
55172;SDS011;41061;52.822;6.860;2022-09-09T13:21:46;3.42;;;1.08;;
55172;SDS011;41061;52.822;6.860;2022-09-09T13:24:24;5.82;;;1.52;;
55172;SDS011;41061;52.822;6.860;2022-09-09T13:26:58;9.30;;;1.42;;
55172;SDS011;41061;52.822;6.860;2022-09-09T13:29:32;8.48;;;1.70;;
55172;SDS011;41061;52.822;6.860;2022-09-09T13:32:05;9.48;;;1.67;;
55172;SDS011;41061;52.822;6.860;2022-09-09T13:34:33;8.45;;;1.65;;
55172;SDS011;41061;52.822;6.860;2022-09-09T13:37:19;6.50;;;1.10;;
55172;SDS011;41061;52.822;6.860;2022-09-09T13:40:01;5.68;;;1.30;;
55172;SDS011;41061;52.822;6.860;2022-09-09T13:42:31;5.45;;;1.15;;
55172;SDS011;41061;52.822;6.860;2022-09-09T13:45:00;6.03;;;1.52;;
55172;SDS011;41061;52.822;6.860;2022-09-09T13:47:33;4.50;;;1.08;;
55172;SDS011;41061;52.822;6.860;2022-09-09T13:52:52;5.88;;;1.13;;
55172;SDS011;41061;52.822;6.860;2022-09-09T13:55:20;4.47;;;1.15;;
55172;SDS011;41061;52.822;6.860;2022-09-09T13:57:57;4.35;;;0.93;;
55172;SDS011;41061;52.822;6.860;2022-09-09T14:00:36;3.65;;;1.02;;
55172;SDS011;41061;52.822;6.860;2022-09-09T14:03:20;8.30;;;1.10;;
55172;SDS011;41061;52.822;6.860;2022-09-09T14:06:07;6.95;;;1.05;;
55172;SDS011;41061;52.822;6.860;2022-09-09T14:08:38;7.30;;;1.00;;
55172;SDS011;41061;52.822;6.860;2022-09-09T14:11:30;2.42;;;0.70;;
55172;SDS011;41061;52.822;6.860;2022-09-09T14:14:08;5.50;;;1.38;;
55172;SDS011;41061;52.822;6.860;2022-09-09T14:16:42;6.60;;;1.17;;
55172;SDS011;41061;52.822;6.860;2022-09-09T14:19:08;5.95;;;1.20;;
55172;SDS011;41061;52.822;6.860;2022-09-09T14:21:34;2.63;;;0.75;;
55172;SDS011;41061;52.822;6.860;2022-09-09T14:24:00;1.48;;;0.43;;
55172;SDS011;41061;52.822;6.860;2022-09-09T14:26:26;2.38;;;0.60;;
55172;SDS011;41061;52.822;6.860;2022-09-09T14:28:53;2.25;;;0.40;;
55172;SDS011;41061;52.822;6.860;2022-09-09T14:31:19;2.67;;;0.43;;
55172;SDS011;41061;52.822;6.860;2022-09-09T14:33:46;1.05;;;0.30;;
55172;SDS011;41061;52.822;6.860;2022-09-09T14:36:11;1.15;;;0.30;;
55172;SDS011;41061;52.822;6.860;2022-09-09T14:38:38;1.48;;;0.22;;
55172;SDS011;41061;52.822;6.860;2022-09-09T14:41:14;1.05;;;0.30;;
55172;SDS011;41061;52.822;6.860;2022-09-09T14:43:41;1.55;;;0.40;;
55172;SDS011;41061;52.822;6.860;2022-09-09T14:46:08;2.95;;;0.50;;
55172;SDS011;41061;52.822;6.860;2022-09-09T14:48:35;3.13;;;0.40;;
55172;SDS011;41061;52.822;6.860;2022-09-09T14:51:08;1.83;;;0.50;;
55172;SDS011;41061;52.822;6.860;2022-09-09T14:53:35;1.80;;;0.50;;
55172;SDS011;41061;52.822;6.860;2022-09-09T14:56:05;1.10;;;0.40;;
55172;SDS011;41061;52.822;6.860;2022-09-09T14:58:33;1.67;;;0.52;;
55172;SDS011;41061;52.822;6.860;2022-09-09T15:01:09;1.02;;;0.60;;
55172;SDS011;41061;52.822;6.860;2022-09-09T15:04:05;2.20;;;0.60;;
55172;SDS011;41061;52.822;6.860;2022-09-09T15:06:32;3.25;;;0.80;;
55172;SDS011;41061;52.822;6.860;2022-09-09T15:09:25;2.92;;;1.15;;
55172;SDS011;41061;52.822;6.860;2022-09-09T15:11:57;3.67;;;0.70;;
55172;SDS011;41061;52.822;6.860;2022-09-09T15:14:56;1.90;;;0.93;;
55172;SDS011;41061;52.822;6.860;2022-09-09T15:17:36;4.65;;;0.93;;
55172;SDS011;41061;52.822;6.860;2022-09-09T15:20:10;2.00;;;0.75;;
55172;SDS011;41061;52.822;6.860;2022-09-09T15:29:15;4.03;;;0.85;;
55172;SDS011;41061;52.822;6.860;2022-09-09T15:32:16;3.65;;;1.08;;
55172;SDS011;41061;52.822;6.860;2022-09-09T15:35:45;1.80;;;0.65;;
55172;SDS011;41061;52.822;6.860;2022-09-09T15:38:47;3.08;;;1.17;;
55172;SDS011;41061;52.822;6.860;2022-09-09T15:41:46;3.53;;;1.10;;
55172;SDS011;41061;52.822;6.860;2022-09-09T15:47:14;2.88;;;1.17;;
55172;SDS011;41061;52.822;6.860;2022-09-09T15:53:22;2.58;;;1.35;;
55172;SDS011;41061;52.822;6.860;2022-09-09T15:55:54;4.30;;;1.50;;
55172;SDS011;41061;52.822;6.860;2022-09-09T15:58:29;6.22;;;1.42;;
55172;SDS011;41061;52.822;6.860;2022-09-09T16:01:02;4.25;;;1.10;;
55172;SDS011;41061;52.822;6.860;2022-09-09T16:03:38;4.70;;;1.20;;
55172;SDS011;41061;52.822;6.860;2022-09-09T16:06:14;1.85;;;0.98;;
55172;SDS011;41061;52.822;6.860;2022-09-09T16:08:40;4.30;;;1.30;;
55172;SDS011;41061;52.822;6.860;2022-09-09T16:13:47;3.60;;;1.13;;
55172;SDS011;41061;52.822;6.860;2022-09-09T16:16:15;3.78;;;1.10;;
55172;SDS011;41061;52.822;6.860;2022-09-09T16:18:49;5.32;;;1.38;;
55172;SDS011;41061;52.822;6.860;2022-09-09T16:21:24;4.38;;;1.05;;
55172;SDS011;41061;52.822;6.860;2022-09-09T16:23:54;3.55;;;1.20;;
55172;SDS011;41061;52.822;6.860;2022-09-09T16:26:24;5.32;;;1.30;;
55172;SDS011;41061;52.822;6.860;2022-09-09T16:28:50;2.47;;;1.05;;
55172;SDS011;41061;52.822;6.860;2022-09-09T16:31:17;3.33;;;1.10;;
55172;SDS011;41061;52.822;6.860;2022-09-09T16:33:47;4.18;;;1.40;;
55172;SDS011;41061;52.822;6.860;2022-09-09T16:36:14;4.47;;;1.10;;
55172;SDS011;41061;52.822;6.860;2022-09-09T16:38:43;3.20;;;1.10;;
55172;SDS011;41061;52.822;6.860;2022-09-09T16:41:09;5.50;;;1.30;;
55172;SDS011;41061;52.822;6.860;2022-09-09T16:43:36;4.35;;;1.27;;
55172;SDS011;41061;52.822;6.860;2022-09-09T16:46:15;3.35;;;1.20;;
55172;SDS011;41061;52.822;6.860;2022-09-09T16:48:43;4.15;;;1.27;;
55172;SDS011;41061;52.822;6.860;2022-09-09T16:51:14;3.47;;;1.65;;
55172;SDS011;41061;52.822;6.860;2022-09-09T16:53:51;4.53;;;1.13;;
55172;SDS011;41061;52.822;6.860;2022-09-09T16:56:22;4.03;;;1.25;;
55172;SDS011;41061;52.822;6.860;2022-09-09T16:58:57;3.05;;;1.38;;
55172;SDS011;41061;52.822;6.860;2022-09-09T17:01:28;4.82;;;1.20;;
55172;SDS011;41061;52.822;6.860;2022-09-09T17:03:57;5.25;;;1.83;;
55172;SDS011;41061;52.822;6.860;2022-09-09T17:06:25;6.35;;;1.80;;
55172;SDS011;41061;52.822;6.860;2022-09-09T17:08:55;4.65;;;1.02;;
55172;SDS011;41061;52.822;6.860;2022-09-09T17:11:22;5.68;;;1.00;;
55172;SDS011;41061;52.822;6.860;2022-09-09T17:13:48;5.75;;;1.10;;
55172;SDS011;41061;52.822;6.860;2022-09-09T17:16:16;2.95;;;0.90;;
55172;SDS011;41061;52.822;6.860;2022-09-09T17:18:43;3.70;;;1.05;;
55172;SDS011;41061;52.822;6.860;2022-09-09T17:21:10;5.90;;;1.08;;
55172;SDS011;41061;52.822;6.860;2022-09-09T17:23:39;5.60;;;1.70;;
55172;SDS011;41061;52.822;6.860;2022-09-09T17:26:06;2.90;;;0.90;;
55172;SDS011;41061;52.822;6.860;2022-09-09T17:28:35;4.65;;;1.05;;
55172;SDS011;41061;52.822;6.860;2022-09-09T17:31:03;3.10;;;0.85;;
55172;SDS011;41061;52.822;6.860;2022-09-09T17:33:32;4.85;;;1.20;;
55172;SDS011;41061;52.822;6.860;2022-09-09T17:36:00;2.45;;;1.00;;
55172;SDS011;41061;52.822;6.860;2022-09-09T17:38:32;3.47;;;0.93;;
55172;SDS011;41061;52.822;6.860;2022-09-09T17:41:08;6.55;;;1.20;;
55172;SDS011;41061;52.822;6.860;2022-09-09T17:43:36;2.90;;;0.80;;
55172;SDS011;41061;52.822;6.860;2022-09-09T17:46:06;3.03;;;1.30;;
55172;SDS011;41061;52.822;6.860;2022-09-09T17:48:54;5.68;;;1.00;;
55172;SDS011;41061;52.822;6.860;2022-09-09T17:51:23;2.25;;;0.75;;
55172;SDS011;41061;52.822;6.860;2022-09-09T17:53:52;3.15;;;0.95;;
55172;SDS011;41061;52.822;6.860;2022-09-09T17:56:23;4.30;;;1.10;;
55172;SDS011;41061;52.822;6.860;2022-09-09T17:58:50;3.67;;;1.05;;
55172;SDS011;41061;52.822;6.860;2022-09-09T18:01:18;5.72;;;1.33;;
55172;SDS011;41061;52.822;6.860;2022-09-09T18:03:46;3.33;;;0.82;;
55172;SDS011;41061;52.822;6.860;2022-09-09T18:06:20;7.45;;;1.55;;
55172;SDS011;41061;52.822;6.860;2022-09-09T18:08:57;3.28;;;1.20;;
55172;SDS011;41061;52.822;6.860;2022-09-09T18:11:25;4.28;;;1.20;;
55172;SDS011;41061;52.822;6.860;2022-09-09T18:13:53;5.53;;;1.33;;
55172;SDS011;41061;52.822;6.860;2022-09-09T18:16:21;3.28;;;1.02;;
55172;SDS011;41061;52.822;6.860;2022-09-09T18:18:48;3.45;;;1.00;;
55172;SDS011;41061;52.822;6.860;2022-09-09T18:21:15;3.28;;;1.10;;
55172;SDS011;41061;52.822;6.860;2022-09-09T18:23:43;5.28;;;1.33;;
55172;SDS011;41061;52.822;6.860;2022-09-09T18:26:14;4.90;;;1.15;;
55172;SDS011;41061;52.822;6.860;2022-09-09T18:28:42;7.38;;;1.20;;
55172;SDS011;41061;52.822;6.860;2022-09-09T18:31:12;3.97;;;1.13;;
55172;SDS011;41061;52.822;6.860;2022-09-09T18:33:41;7.45;;;1.70;;
55172;SDS011;41061;52.822;6.860;2022-09-09T18:36:21;1.70;;;1.00;;
55172;SDS011;41061;52.822;6.860;2022-09-09T18:38:49;9.15;;;1.35;;
55172;SDS011;41061;52.822;6.860;2022-09-09T18:41:16;5.60;;;1.58;;
55172;SDS011;41061;52.822;6.860;2022-09-09T18:43:47;3.38;;;1.30;;